createdAt,value
2022-10-14T00:00:51.382Z,36.80
2022-10-14T00:03:22.249Z,46.70
2022-10-14T00:05:55.123Z,37.50
2022-10-14T00:08:28.546Z,29.80
2022-10-14T00:11:04.443Z,32.70
2022-10-14T00:13:36.373Z,31.10
2022-10-14T00:16:16.183Z,27.90
2022-10-14T00:18:47.614Z,30.60
2022-10-14T00:21:20.411Z,31.50
2022-10-14T00:23:51.391Z,47.40
2022-10-14T00:26:27.920Z,43.00
2022-10-14T00:28:59.451Z,34.60
2022-10-14T00:31:33.659Z,33.70
2022-10-14T00:34:04.932Z,41.20
2022-10-14T00:36:37.422Z,26.10
2022-10-14T00:39:08.674Z,37.70
2022-10-14T00:41:42.524Z,35.10
2022-10-14T00:44:40.329Z,29.80
2022-10-14T00:47:11.502Z,37.30
2022-10-14T00:49:44.778Z,30.50
2022-10-14T00:52:21.127Z,30.00
2022-10-14T00:54:55.499Z,35.10
2022-10-14T00:57:28.489Z,27.10
2022-10-14T01:00:06.479Z,28.60
2022-10-14T01:02:37.799Z,35.50
2022-10-14T01:05:11.871Z,35.30
2022-10-14T01:08:01.743Z,29.70
2022-10-14T01:10:41.497Z,35.70
2022-10-14T01:13:23.863Z,34.30
2022-10-14T01:16:06.314Z,34.70
2022-10-14T01:18:52.122Z,31.70
2022-10-14T01:21:29.049Z,28.10
2022-10-14T01:24:25.519Z,33.20
2022-10-14T01:27:35.546Z,35.20
2022-10-14T01:30:19.937Z,29.40
2022-10-14T01:33:03.971Z,34.20
2022-10-14T01:35:45.700Z,35.50
2022-10-14T01:38:21.698Z,31.80
2022-10-14T01:40:58.147Z,30.30
2022-10-14T01:43:32.593Z,36.90
2022-10-14T01:46:06.436Z,35.10
2022-10-14T01:48:40.234Z,31.30
2022-10-14T01:51:16.189Z,38.80
2022-10-14T01:54:09.083Z,30.50
2022-10-14T01:56:41.010Z,34.40
2022-10-14T01:59:14.008Z,32.30
2022-10-14T02:01:45.207Z,34.20
2022-10-14T02:04:21.956Z,35.70
2022-10-14T02:07:05.774Z,33.00
2022-10-14T02:09:44.478Z,28.90
2022-10-14T02:12:29.226Z,32.90
2022-10-14T02:15:12.193Z,31.70
2022-10-14T02:17:52.320Z,39.80
2022-10-14T02:20:30.837Z,36.60
2022-10-14T02:23:14.351Z,29.30
2022-10-14T02:28:37.281Z,30.90
2022-10-14T02:31:24.678Z,39.40
2022-10-14T02:34:35.845Z,35.10
2022-10-14T02:37:09.668Z,40.30
2022-10-14T02:40:00.437Z,34.40
2022-10-14T02:42:50.296Z,38.80
2022-10-14T02:45:33.040Z,34.20
2022-10-14T02:48:04.043Z,33.40
2022-10-14T02:50:35.339Z,32.20
2022-10-14T02:53:06.397Z,34.80
2022-10-14T02:55:37.356Z,37.20
2022-10-14T02:58:10.459Z,33.60
2022-10-14T03:00:41.769Z,34.70
2022-10-14T03:03:23.097Z,34.80
2022-10-14T03:05:56.681Z,38.90
2022-10-14T03:08:27.987Z,37.10
2022-10-14T03:11:00.134Z,27.90
2022-10-14T03:13:31.794Z,40.30
2022-10-14T03:16:06.826Z,33.20
2022-10-14T03:18:45.973Z,34.60
2022-10-14T03:21:24.469Z,38.80
2022-10-14T03:23:55.457Z,43.00
2022-10-14T03:26:32.784Z,34.00
2022-10-14T03:29:03.849Z,27.40
2022-10-14T03:31:57.186Z,34.80
2022-10-14T03:34:33.040Z,31.50
2022-10-14T03:37:09.041Z,44.30
2022-10-14T03:39:45.064Z,38.70
2022-10-14T03:42:16.733Z,42.90
2022-10-14T03:44:50.086Z,34.20
2022-10-14T03:47:24.895Z,44.90
2022-10-14T03:49:55.977Z,28.80
2022-10-14T03:52:53.286Z,36.20
2022-10-14T03:55:31.105Z,33.60
2022-10-14T03:58:02.069Z,30.60
2022-10-14T04:00:35.622Z,40.40
2022-10-14T04:03:17.096Z,37.70
2022-10-14T04:05:48.552Z,35.30
2022-10-14T04:08:21.864Z,29.50
2022-10-14T04:10:58.880Z,36.10
2022-10-14T04:13:32.159Z,40.70
2022-10-14T04:16:08.143Z,33.20
2022-10-14T04:18:58.718Z,27.60
2022-10-14T04:21:29.711Z,38.00
2022-10-14T04:24:06.076Z,38.60
2022-10-14T04:26:44.045Z,47.90
2022-10-14T04:29:19.941Z,35.90
2022-10-14T04:32:05.219Z,26.60
2022-10-14T04:34:36.305Z,35.40
2022-10-14T04:37:08.969Z,21.20
2022-10-14T04:40:03.776Z,31.50
2022-10-14T04:42:35.212Z,29.60
2022-10-14T04:45:09.410Z,29.00
2022-10-14T04:47:48.924Z,36.20
2022-10-14T04:50:22.689Z,43.40
2022-10-14T04:53:13.765Z,34.80
2022-10-14T04:56:06.001Z,33.00
2022-10-14T04:58:39.452Z,34.90
2022-10-14T05:01:11.522Z,32.20
2022-10-14T05:03:44.236Z,38.10
2022-10-14T05:06:21.760Z,33.00
2022-10-14T05:08:55.238Z,48.70
2022-10-14T05:11:27.080Z,40.10
2022-10-14T05:13:59.997Z,35.40
2022-10-14T05:16:31.688Z,39.80
2022-10-14T05:19:05.390Z,42.00
2022-10-14T05:21:38.178Z,43.20
2022-10-14T05:24:16.183Z,42.30
2022-10-14T05:26:47.495Z,41.30
2022-10-14T05:29:19.396Z,35.10
2022-10-14T05:31:52.920Z,39.20
2022-10-14T05:34:44.107Z,32.40
2022-10-14T05:37:19.890Z,32.80
2022-10-14T05:39:55.367Z,37.70
2022-10-14T05:42:28.539Z,37.70
2022-10-14T05:45:01.114Z,36.80
2022-10-14T05:47:32.608Z,40.40
2022-10-14T05:50:09.531Z,39.80
2022-10-14T05:52:41.036Z,36.00
2022-10-14T05:55:18.452Z,32.90
2022-10-14T05:57:50.075Z,31.90
2022-10-14T06:00:25.780Z,38.80
2022-10-14T06:03:00.569Z,40.00
2022-10-14T06:05:31.750Z,45.00
2022-10-14T06:08:02.817Z,44.80
2022-10-14T06:10:33.990Z,33.00
2022-10-14T06:13:05.200Z,30.40
2022-10-14T06:15:39.043Z,40.60
2022-10-14T06:18:10.430Z,30.70
2022-10-14T06:20:47.808Z,33.00
2022-10-14T06:23:21.426Z,34.70
2022-10-14T06:25:53.088Z,30.70
2022-10-14T06:28:27.085Z,36.10
2022-10-14T06:30:58.377Z,34.20
2022-10-14T06:33:31.132Z,37.50
2022-10-14T06:36:05.881Z,36.60
2022-10-14T06:38:37.164Z,36.30
2022-10-14T06:41:08.232Z,34.50
2022-10-14T06:43:39.514Z,36.20
2022-10-14T06:46:10.703Z,31.40
2022-10-14T06:48:46.876Z,46.90
2022-10-14T06:51:21.627Z,31.90
2022-10-14T06:53:52.446Z,35.40
2022-10-14T06:56:24.944Z,45.40
2022-10-14T06:58:58.641Z,34.00
2022-10-14T07:01:30.019Z,35.30
2022-10-14T07:04:00.941Z,30.30
2022-10-14T07:06:34.664Z,36.90
2022-10-14T07:09:06.596Z,33.20
2022-10-14T07:11:38.356Z,34.50
2022-10-14T07:14:09.702Z,33.20
2022-10-14T07:16:40.823Z,38.00
2022-10-14T07:19:11.897Z,51.70
2022-10-14T07:21:45.398Z,36.20
2022-10-14T07:24:16.742Z,31.90
2022-10-14T07:26:50.170Z,32.10
2022-10-14T07:29:21.094Z,29.10
2022-10-14T07:31:51.975Z,35.60
2022-10-14T07:34:22.991Z,32.00
2022-10-14T07:36:54.543Z,32.70
2022-10-14T07:39:27.692Z,32.60
2022-10-14T07:41:58.912Z,26.20
2022-10-14T07:44:29.874Z,32.20
2022-10-14T07:47:03.289Z,37.80
2022-10-14T07:49:35.582Z,39.10
2022-10-14T07:52:08.381Z,35.70
2022-10-14T07:54:40.088Z,30.80
2022-10-14T07:57:11.087Z,25.70
2022-10-14T07:59:42.137Z,33.10
2022-10-14T08:02:14.485Z,35.90
2022-10-14T08:04:48.764Z,34.10
2022-10-14T08:07:20.244Z,31.40
2022-10-14T08:09:53.817Z,30.70
2022-10-14T08:12:25.348Z,32.50
2022-10-14T08:14:59.052Z,30.60
2022-10-14T08:17:30.061Z,31.20
2022-10-14T08:20:01.170Z,26.90
2022-10-14T08:22:32.824Z,28.00
2022-10-14T08:25:04.009Z,34.30
2022-10-14T08:27:35.121Z,26.30
2022-10-14T08:30:11.104Z,27.10
2022-10-14T08:32:42.149Z,26.60
2022-10-14T08:35:13.561Z,33.70
2022-10-14T08:37:45.554Z,26.00
2022-10-14T08:40:18.953Z,27.50
2022-10-14T08:42:56.897Z,32.50
2022-10-14T08:45:36.729Z,30.60
2022-10-14T08:48:16.214Z,38.40
2022-10-14T08:50:54.441Z,29.30
2022-10-14T08:53:30.609Z,22.20
2022-10-14T08:56:03.865Z,26.80
2022-10-14T08:58:38.547Z,24.90
2022-10-14T09:01:28.817Z,29.10
2022-10-14T09:04:04.122Z,24.00
2022-10-14T09:06:39.888Z,29.80
2022-10-14T09:09:15.537Z,28.40
2022-10-14T09:11:51.867Z,26.20
2022-10-14T09:14:32.867Z,27.80
2022-10-14T09:19:50.885Z,22.00
2022-10-14T09:22:22.233Z,34.50
2022-10-14T09:24:53.382Z,49.20
2022-10-14T09:27:26.007Z,27.20
2022-10-14T09:30:00.254Z,30.70
2022-10-14T09:32:34.731Z,25.20
2022-10-14T09:35:15.979Z,27.90
2022-10-14T09:37:46.965Z,27.70
2022-10-14T09:40:26.115Z,26.10
2022-10-14T09:43:17.263Z,33.80
2022-10-14T09:45:57.215Z,31.90
2022-10-14T09:48:38.801Z,36.00
2022-10-14T09:51:18.841Z,30.70
2022-10-14T09:53:53.457Z,25.50
2022-10-14T09:56:37.459Z,29.70
2022-10-14T09:59:19.791Z,27.90
2022-10-14T10:01:56.352Z,28.20
2022-10-14T10:04:37.547Z,33.60
2022-10-14T10:07:27.147Z,38.30
2022-10-14T10:09:59.576Z,32.50
2022-10-14T10:12:33.281Z,25.80
2022-10-14T10:15:06.277Z,29.50
2022-10-14T10:17:40.805Z,27.40
2022-10-14T10:20:28.319Z,29.90
2022-10-14T10:23:18.456Z,35.20
2022-10-14T10:25:50.120Z,29.10
2022-10-14T10:28:32.292Z,29.50
2022-10-14T10:31:21.267Z,27.60
2022-10-14T10:33:58.257Z,34.20
2022-10-14T10:36:35.018Z,35.20
2022-10-14T10:39:18.444Z,26.60
2022-10-14T10:42:02.547Z,24.40
2022-10-14T10:44:53.259Z,33.80
2022-10-14T10:47:38.272Z,31.70
2022-10-14T10:50:39.319Z,30.80
2022-10-14T10:53:29.484Z,33.50
2022-10-14T10:56:13.645Z,24.60
2022-10-14T10:58:59.033Z,29.80
2022-10-14T11:01:41.963Z,27.60
2022-10-14T11:04:31.902Z,33.70
2022-10-14T11:07:33.631Z,38.30
2022-10-14T11:10:32.131Z,38.60
2022-10-14T11:13:13.231Z,31.20
2022-10-14T11:15:53.714Z,32.10
2022-10-14T11:18:35.833Z,43.00
2022-10-14T11:21:16.951Z,31.40
2022-10-14T11:23:57.234Z,38.60
2022-10-14T11:26:50.243Z,34.30
2022-10-14T11:29:43.023Z,30.40
2022-10-14T11:32:21.769Z,29.20
2022-10-14T11:35:06.144Z,29.50
2022-10-14T11:37:49.775Z,34.70
2022-10-14T11:40:28.882Z,29.00
2022-10-14T11:43:14.667Z,31.20
2022-10-14T11:45:52.530Z,37.40
2022-10-14T11:48:33.955Z,32.00
2022-10-14T11:51:12.847Z,25.70
2022-10-14T11:54:02.065Z,35.20
2022-10-14T11:56:39.057Z,33.50
2022-10-14T11:59:38.095Z,38.00
2022-10-14T12:02:27.567Z,26.60
2022-10-14T12:05:03.722Z,28.80
2022-10-14T12:07:42.547Z,38.60
2022-10-14T12:10:27.345Z,34.90
2022-10-14T12:13:00.345Z,28.50
2022-10-14T12:15:31.672Z,38.60
2022-10-14T12:18:05.852Z,30.80
2022-10-14T12:20:44.934Z,32.60
2022-10-14T12:23:19.656Z,36.30
2022-10-14T12:25:56.657Z,34.30
2022-10-14T12:28:27.889Z,25.80
2022-10-14T12:31:23.829Z,29.70
2022-10-14T12:36:43.525Z,24.50
2022-10-14T12:39:34.352Z,33.30
2022-10-14T12:42:12.421Z,30.40
2022-10-14T12:44:49.961Z,29.60
2022-10-14T12:47:29.111Z,30.70
2022-10-14T12:50:03.226Z,32.60
2022-10-14T12:52:36.964Z,26.20
2022-10-14T12:55:17.906Z,29.30
2022-10-14T12:57:56.822Z,24.10
2022-10-14T13:00:42.136Z,29.70
2022-10-14T13:03:22.550Z,33.60
2022-10-14T13:06:16.415Z,27.20
2022-10-14T13:09:30.785Z,27.60
2022-10-14T13:12:36.017Z,26.00
2022-10-14T13:15:30.084Z,31.30
2022-10-14T13:18:22.531Z,34.10
2022-10-14T13:20:55.733Z,30.60
2022-10-14T13:23:38.970Z,32.10
2022-10-14T13:26:21.495Z,30.80
2022-10-14T13:29:04.306Z,26.80
2022-10-14T13:31:43.528Z,29.60
2022-10-14T13:34:30.722Z,33.80
2022-10-14T13:37:11.060Z,29.40
2022-10-14T13:39:42.700Z,32.40
2022-10-14T13:42:23.685Z,33.70
2022-10-14T13:44:57.740Z,34.30
2022-10-14T13:47:30.196Z,33.50
2022-10-14T13:50:02.018Z,28.90
2022-10-14T13:52:36.083Z,27.70
2022-10-14T13:55:16.855Z,31.00
2022-10-14T13:58:13.015Z,29.20
2022-10-14T14:00:51.821Z,25.80
2022-10-14T14:03:27.471Z,28.60
2022-10-14T14:05:59.813Z,32.00
2022-10-14T14:08:42.117Z,37.10
2022-10-14T14:11:20.486Z,25.90
2022-10-14T14:14:00.632Z,32.70
2022-10-14T14:16:35.721Z,25.40
2022-10-14T14:19:09.582Z,31.80
2022-10-14T14:21:42.223Z,30.60
2022-10-14T14:24:29.514Z,33.10
2022-10-14T14:27:03.450Z,29.00
2022-10-14T14:29:36.564Z,30.10
2022-10-14T14:32:08.567Z,27.30
2022-10-14T14:34:44.308Z,32.00
2022-10-14T14:40:21.256Z,31.50
2022-10-14T14:42:55.582Z,32.30
2022-10-14T14:45:30.556Z,29.40
2022-10-14T14:48:05.686Z,33.20
2022-10-14T14:50:40.249Z,29.60
2022-10-14T14:53:16.448Z,34.80
2022-10-14T14:56:00.431Z,33.60
2022-10-14T14:58:37.259Z,39.30
2022-10-14T15:01:18.098Z,32.90
2022-10-14T15:04:13.196Z,40.60
2022-10-14T15:06:51.042Z,24.90
2022-10-14T15:09:31.426Z,28.30
2022-10-14T15:12:05.758Z,23.60
2022-10-14T15:14:44.315Z,29.70
2022-10-14T15:17:29.720Z,30.60
2022-10-14T15:20:22.449Z,27.70
2022-10-14T15:22:53.415Z,27.40
2022-10-14T15:25:30.479Z,32.00
2022-10-14T15:28:03.003Z,27.20
2022-10-14T15:30:37.116Z,28.00
2022-10-14T15:33:18.160Z,37.50
2022-10-14T15:35:57.625Z,28.20
2022-10-14T15:41:06.322Z,26.20
2022-10-14T15:43:39.825Z,32.80
2022-10-14T15:46:33.086Z,30.70
2022-10-14T15:49:13.036Z,28.50
2022-10-14T15:51:44.055Z,27.90
2022-10-14T15:54:18.792Z,26.90
2022-10-14T15:56:49.608Z,28.60
2022-10-14T15:59:20.753Z,27.10
2022-10-14T16:01:52.306Z,30.40
2022-10-14T16:04:27.663Z,27.50
2022-10-14T16:09:29.160Z,27.70
2022-10-14T16:11:59.987Z,36.30
2022-10-14T16:14:31.028Z,31.90
2022-10-14T16:17:04.810Z,23.80
2022-10-14T16:19:38.184Z,33.20
2022-10-14T16:22:11.310Z,32.30
2022-10-14T16:24:43.072Z,32.30
2022-10-14T16:27:14.201Z,33.10
2022-10-14T16:29:45.250Z,35.20
2022-10-14T16:32:17.249Z,33.50
2022-10-14T16:34:48.472Z,29.00
2022-10-14T16:37:20.534Z,32.40
2022-10-14T16:40:15.685Z,41.50
2022-10-14T16:42:46.500Z,33.70
2022-10-14T16:45:19.539Z,31.70
2022-10-14T16:47:51.018Z,33.10
2022-10-14T16:50:22.808Z,33.20
2022-10-14T16:53:11.717Z,33.60
2022-10-14T16:55:43.048Z,36.40
2022-10-14T16:58:14.615Z,29.70
2022-10-14T17:00:45.704Z,33.00
2022-10-14T17:03:17.444Z,34.70
2022-10-14T17:05:49.617Z,36.10
2022-10-14T17:08:21.059Z,33.30
2022-10-14T17:11:02.381Z,35.90
2022-10-14T17:13:33.537Z,29.60
2022-10-14T17:16:06.451Z,34.90
2022-10-14T17:18:42.556Z,38.00
2022-10-14T17:21:15.081Z,34.70
2022-10-14T17:23:47.226Z,34.50
2022-10-14T17:26:20.601Z,32.90
2022-10-14T17:28:51.527Z,37.90
2022-10-14T17:31:22.777Z,35.00
2022-10-14T17:33:54.039Z,37.30
2022-10-14T17:36:27.880Z,34.00
2022-10-14T17:39:00.604Z,46.10
2022-10-14T17:41:32.943Z,38.10
2022-10-14T17:44:04.145Z,35.60
2022-10-14T17:46:37.068Z,40.90
2022-10-14T17:49:10.149Z,36.80
2022-10-14T17:51:42.170Z,41.70
2022-10-14T17:54:14.456Z,37.10
2022-10-14T17:56:45.574Z,38.50
2022-10-14T17:59:26.543Z,38.50
2022-10-14T18:02:03.484Z,40.40
2022-10-14T18:04:39.983Z,40.80
2022-10-14T18:07:12.109Z,36.00
2022-10-14T18:09:43.785Z,37.50
2022-10-14T18:12:16.146Z,40.30
2022-10-14T18:14:49.983Z,46.20
2022-10-14T18:17:22.137Z,44.80
2022-10-14T18:19:53.699Z,38.90
2022-10-14T18:22:24.790Z,46.20
2022-10-14T18:24:57.513Z,69.20
2022-10-14T18:27:29.583Z,45.10
2022-10-14T18:30:00.876Z,48.50
2022-10-14T18:32:33.485Z,51.30
2022-10-14T18:35:06.112Z,34.90
2022-10-14T18:37:38.235Z,38.80
2022-10-14T18:40:14.434Z,32.50
2022-10-14T18:42:45.548Z,40.30
2022-10-14T18:45:19.731Z,41.50
2022-10-14T18:47:52.279Z,38.00
2022-10-14T18:50:23.185Z,47.80
2022-10-14T18:52:56.586Z,48.30
2022-10-14T18:55:27.836Z,44.80
2022-10-14T18:58:02.310Z,44.50
2022-10-14T19:00:35.153Z,50.00
2022-10-14T19:03:07.021Z,52.10
2022-10-14T19:05:39.498Z,39.90
2022-10-14T19:08:11.305Z,45.40
2022-10-14T19:10:43.932Z,47.90
2022-10-14T19:13:14.931Z,42.50
2022-10-14T19:15:51.360Z,46.70
2022-10-14T19:18:24.017Z,49.80
2022-10-14T19:20:56.870Z,37.50
2022-10-14T19:23:27.816Z,46.00
2022-10-14T19:26:01.349Z,43.80
2022-10-14T19:28:33.401Z,46.30
2022-10-14T19:31:08.691Z,44.20
2022-10-14T19:36:11.088Z,39.20
2022-10-14T19:38:46.231Z,49.90
2022-10-14T19:43:48.099Z,38.80
2022-10-14T19:46:19.184Z,41.80
2022-10-14T19:48:51.259Z,42.00
2022-10-14T19:51:22.746Z,43.60
2022-10-14T19:53:57.325Z,44.00
2022-10-14T19:56:29.314Z,39.60
2022-10-14T19:59:01.787Z,36.30
2022-10-14T20:01:34.468Z,46.10
2022-10-14T20:04:07.255Z,42.10
2022-10-14T20:06:40.533Z,44.50
2022-10-14T20:09:17.204Z,42.70
2022-10-14T20:11:49.188Z,49.80
2022-10-14T20:14:21.509Z,45.30
2022-10-14T20:16:55.853Z,43.60
2022-10-14T20:19:29.830Z,45.70
2022-10-14T20:22:01.769Z,50.60
2022-10-14T20:24:33.430Z,51.00
2022-10-14T20:27:07.961Z,51.50
2022-10-14T20:29:42.824Z,44.50
2022-10-14T20:32:19.001Z,50.60
2022-10-14T20:34:50.503Z,41.50
2022-10-14T20:37:24.283Z,40.80
2022-10-14T20:39:59.258Z,40.70
2022-10-14T20:42:31.344Z,50.70
2022-10-14T20:45:03.127Z,44.70
2022-10-14T20:47:34.005Z,51.20
2022-10-14T20:50:05.625Z,41.70
2022-10-14T20:52:36.665Z,41.80
2022-10-14T20:55:09.017Z,43.80
2022-10-14T20:57:40.153Z,42.20
2022-10-14T21:00:14.285Z,49.40
2022-10-14T21:02:46.749Z,41.30
2022-10-14T21:05:19.721Z,51.90
2022-10-14T21:07:50.604Z,50.00
2022-10-14T21:10:23.212Z,47.80
2022-10-14T21:12:54.083Z,45.50
2022-10-14T21:15:27.051Z,46.20
2022-10-14T21:17:57.877Z,45.30
2022-10-14T21:20:28.853Z,53.00
2022-10-14T21:22:59.861Z,50.60
2022-10-14T21:25:31.055Z,44.80
2022-10-14T21:28:02.202Z,43.90
2022-10-14T21:30:34.358Z,45.40
2022-10-14T21:33:05.501Z,45.30
2022-10-14T21:35:36.763Z,55.80
2022-10-14T21:38:07.699Z,46.40
2022-10-14T21:40:38.752Z,47.40
2022-10-14T21:43:09.750Z,51.70
2022-10-14T21:45:40.755Z,46.40
2022-10-14T21:48:11.744Z,43.00
2022-10-14T21:50:42.623Z,52.70
2022-10-14T21:53:15.364Z,52.20
2022-10-14T21:55:52.827Z,49.90
2022-10-14T21:58:23.784Z,47.70
2022-10-14T22:01:01.983Z,45.90
2022-10-14T22:03:33.257Z,46.50
2022-10-14T22:06:07.180Z,47.50
2022-10-14T22:08:40.921Z,49.60
2022-10-14T22:11:18.856Z,56.30
2022-10-14T22:13:50.314Z,46.60
2022-10-14T22:16:21.447Z,47.20
2022-10-14T22:18:53.973Z,46.60
2022-10-14T22:21:26.983Z,46.30
2022-10-14T22:23:59.415Z,45.70
2022-10-14T22:26:31.236Z,46.80
2022-10-14T22:29:04.425Z,46.70
2022-10-14T22:31:36.056Z,59.70
2022-10-14T22:34:08.844Z,49.90
2022-10-14T22:36:39.876Z,49.70
2022-10-14T22:39:14.681Z,47.40
2022-10-14T22:41:45.849Z,51.00
2022-10-14T22:44:18.803Z,49.90
2022-10-14T22:46:49.708Z,55.20
2022-10-14T22:49:20.546Z,51.60
2022-10-14T22:51:54.532Z,56.10
2022-10-14T22:54:29.805Z,45.10
2022-10-14T22:57:00.814Z,52.10
2022-10-14T22:59:31.780Z,53.80
2022-10-14T23:02:02.666Z,61.20
2022-10-14T23:04:33.493Z,51.70
2022-10-14T23:07:06.923Z,62.70
2022-10-14T23:09:38.080Z,50.20
2022-10-14T23:12:09.258Z,54.50
2022-10-14T23:14:40.164Z,58.40
2022-10-14T23:17:10.937Z,53.20
2022-10-14T23:19:41.747Z,55.10
2022-10-14T23:22:12.698Z,60.80
2022-10-14T23:24:44.156Z,52.60
2022-10-14T23:27:14.961Z,53.70
2022-10-14T23:29:45.778Z,49.00
2022-10-14T23:32:16.548Z,52.20
2022-10-14T23:34:47.352Z,54.90
2022-10-14T23:37:18.226Z,58.80
2022-10-14T23:39:49.375Z,61.00
2022-10-14T23:42:20.176Z,55.80
2022-10-14T23:44:51.281Z,50.80
2022-10-14T23:47:22.282Z,55.40
2022-10-14T23:49:53.529Z,44.90
2022-10-14T23:52:24.546Z,58.10
2022-10-14T23:57:27.575Z,55.50
2022-10-14T23:59:58.391Z,56.20
